Castle Rock, Minnesota
Current Conditions -  °F | °C
As of 6:06 PM on Friday 28 Nov 2014 (Local Time) from KLVN Reporting Station
Clear Clear  
Wind Chill: 12°   Ceiling: Unl
Heat Index: 21°   Visibility: 10mi
Dew Point: 18°   Wind: 8mph
Humidity: 86%   Direction: 110°ESE
Pressure: 29.8"   Gusts: NA
Location:  44.54°N, 93.15°W
Report Text: KLVN 290006Z AUTO 11007KT 10SM CLR M06/M08 A2980 RMK AO2
Loading
Personal Weather Stations






























Interactive Weather Map New forecast layout! Learn more

10-Day Weather Forecast

Advertisements
Track Severe Weather on mobile